Terminal Aerodrome Forecast
Issued by NWS Tulsa, OK

Home | Current Version | Previous Version | Text Only | Print | Product List | Glossary On
Versions: 1 2 3 4 5 6 7 8 9 10 11 12 13 14 15 16
607
FTUS44 KTSA 301740
TAFTUL
TAF
KTUL 301740Z 3018/0118 30010KT P6SM SCT018
     FM301900 31011KT P6SM FEW025
     FM302100 31009KT P6SM SKC
     FM010300 33007KT P6SM SCT250=

USA.gov is the U.S. government's official web portal to all federal, state and local government web resources and services.